createdAt,value
2022-10-18T00:01:08.789Z,81.47
2022-10-18T00:03:38.637Z,81.58
2022-10-18T00:06:08.560Z,81.72
2022-10-18T00:08:37.093Z,82.20
2022-10-18T00:11:06.913Z,82.14
2022-10-18T00:13:33.528Z,82.23
2022-10-18T00:16:04.143Z,82.37
2022-10-18T00:18:30.797Z,82.48
2022-10-18T00:20:59.210Z,82.13
2022-10-18T00:23:26.907Z,82.20
2022-10-18T00:26:07.659Z,82.46
2022-10-18T00:28:35.610Z,82.21
2022-10-18T00:31:18.930Z,81.91
2022-10-18T00:33:47.627Z,81.95
2022-10-18T00:36:14.597Z,82.21
2022-10-18T00:38:41.982Z,82.22
2022-10-18T00:41:10.967Z,81.96
2022-10-18T00:44:13.089Z,81.75
2022-10-18T00:46:42.811Z,82.06
2022-10-18T00:49:25.393Z,82.12
2022-10-18T00:51:56.486Z,82.18
2022-10-18T00:54:24.033Z,82.44
2022-10-18T00:56:51.246Z,82.45
2022-10-18T00:59:19.167Z,82.12
2022-10-18T01:01:46.174Z,82.06
2022-10-18T01:04:15.024Z,82.07
2022-10-18T01:07:01.505Z,82.04
2022-10-18T01:09:41.677Z,82.40
2022-10-18T01:12:52.053Z,81.89
2022-10-18T01:15:27.883Z,82.00
2022-10-18T01:18:21.311Z,82.22
2022-10-18T01:21:15.139Z,81.88
2022-10-18T01:24:10.829Z,82.22
2022-10-18T01:26:55.733Z,82.51
2022-10-18T01:30:04.211Z,82.12
2022-10-18T01:32:44.327Z,82.35
2022-10-18T01:35:16.616Z,82.53
2022-10-18T01:37:46.551Z,82.52
2022-10-18T01:40:17.996Z,82.30
2022-10-18T01:42:47.826Z,82.40
2022-10-18T01:45:16.699Z,82.68
2022-10-18T01:47:45.807Z,82.66
2022-10-18T01:50:12.705Z,82.36
2022-10-18T01:52:49.903Z,82.38
2022-10-18T01:55:17.611Z,82.57
2022-10-18T01:58:00.235Z,82.76
2022-10-18T02:00:42.597Z,82.39
2022-10-18T02:03:23.386Z,82.39
2022-10-18T02:06:05.099Z,82.23
2022-10-18T02:08:45.908Z,82.61
2022-10-18T02:11:15.851Z,82.06
2022-10-18T02:13:53.049Z,82.52
2022-10-18T02:16:23.539Z,82.45
2022-10-18T02:19:09.059Z,82.58
2022-10-18T02:21:38.178Z,82.68
2022-10-18T02:24:06.907Z,83.06
2022-10-18T02:26:33.837Z,82.91
2022-10-18T02:29:00.570Z,82.87
2022-10-18T02:31:33.534Z,82.63
2022-10-18T02:34:21.810Z,82.59
2022-10-18T02:36:55.693Z,82.32
2022-10-18T02:39:36.746Z,82.34
2022-10-18T02:42:08.843Z,82.32
2022-10-18T02:44:35.978Z,82.68
2022-10-18T02:47:12.505Z,83.19
2022-10-18T02:49:39.145Z,83.25
2022-10-18T02:52:08.914Z,83.10
2022-10-18T02:54:35.521Z,83.48
2022-10-18T02:57:05.070Z,83.64
2022-10-18T02:59:31.750Z,84.03
2022-10-18T03:02:00.696Z,84.04
2022-10-18T03:06:57.514Z,83.04
2022-10-18T03:09:24.306Z,83.36
2022-10-18T03:11:54.045Z,83.64
2022-10-18T03:14:20.641Z,83.62
2022-10-18T03:16:47.299Z,83.79
2022-10-18T03:19:14.091Z,84.11
2022-10-18T03:21:43.202Z,83.86
2022-10-18T03:24:09.850Z,83.51
2022-10-18T03:26:39.461Z,83.86
2022-10-18T03:29:06.300Z,83.77
2022-10-18T03:31:35.943Z,84.09
2022-10-18T03:34:02.624Z,83.76
2022-10-18T03:36:33.852Z,83.98
2022-10-18T03:39:01.165Z,83.83
2022-10-18T03:41:28.109Z,83.81
2022-10-18T03:44:00.461Z,83.89
2022-10-18T03:46:29.299Z,83.54
2022-10-18T03:48:56.030Z,83.32
2022-10-18T03:51:24.814Z,83.47
2022-10-18T03:53:51.438Z,84.14
2022-10-18T03:56:18.129Z,84.17
2022-10-18T03:58:44.763Z,83.51
2022-10-18T04:01:11.573Z,83.83
2022-10-18T04:03:38.189Z,83.87
2022-10-18T04:06:10.034Z,83.96
2022-10-18T04:08:38.011Z,83.60
2022-10-18T04:11:09.588Z,84.23
2022-10-18T04:13:39.329Z,83.31
2022-10-18T04:16:08.663Z,83.54
2022-10-18T04:18:35.286Z,83.84
2022-10-18T04:21:02.410Z,83.91
2022-10-18T04:23:33.857Z,83.82
2022-10-18T04:26:03.217Z,83.84
2022-10-18T04:28:40.240Z,84.11
2022-10-18T04:31:17.146Z,83.89
2022-10-18T04:33:43.804Z,84.38
2022-10-18T04:36:10.511Z,84.47
2022-10-18T04:38:37.248Z,84.52
2022-10-18T04:41:06.186Z,84.52
2022-10-18T04:43:32.868Z,84.73
2022-10-18T04:45:59.506Z,84.80
2022-10-18T04:48:32.334Z,84.74
2022-10-18T04:51:01.984Z,85.27
2022-10-18T04:53:28.656Z,85.00
2022-10-18T04:55:57.738Z,85.40
2022-10-18T04:58:33.903Z,85.08
2022-10-18T05:01:00.818Z,85.14
2022-10-18T05:03:27.456Z,85.38
2022-10-18T05:06:01.952Z,85.24
2022-10-18T05:08:33.852Z,84.94
2022-10-18T05:11:01.105Z,85.38
2022-10-18T05:13:31.171Z,85.51
2022-10-18T05:16:03.272Z,85.83
2022-10-18T05:18:30.139Z,85.63
2022-10-18T05:20:56.962Z,85.71
2022-10-18T05:23:23.839Z,85.48
2022-10-18T05:25:53.690Z,85.45
2022-10-18T05:28:41.596Z,85.51
2022-10-18T05:31:11.963Z,85.82
2022-10-18T05:33:41.054Z,85.36
2022-10-18T05:36:08.344Z,85.31
2022-10-18T05:38:42.507Z,85.51
2022-10-18T05:41:12.528Z,85.38
2022-10-18T05:43:42.014Z,85.48
2022-10-18T05:46:14.758Z,86.00
2022-10-18T05:48:44.128Z,85.77
2022-10-18T05:51:10.906Z,85.33
2022-10-18T05:53:38.243Z,86.10
2022-10-18T05:56:06.271Z,85.86
2022-10-18T05:58:33.521Z,85.98
2022-10-18T06:01:01.277Z,86.09
2022-10-18T06:03:28.498Z,85.99
2022-10-18T06:06:00.408Z,85.75
2022-10-18T06:08:27.428Z,85.77
2022-10-18T06:10:56.125Z,86.07
2022-10-18T06:13:22.966Z,86.28
2022-10-18T06:15:52.445Z,85.49
2022-10-18T06:18:19.058Z,85.93
2022-10-18T06:20:45.655Z,86.38
2022-10-18T06:23:12.364Z,86.25
2022-10-18T06:25:39.028Z,85.75
2022-10-18T06:28:07.939Z,85.76
2022-10-18T06:30:37.125Z,86.06
2022-10-18T06:33:03.792Z,86.08
2022-10-18T06:35:30.481Z,86.21
2022-10-18T06:37:57.805Z,86.78
2022-10-18T06:40:24.861Z,86.29
2022-10-18T06:43:00.121Z,86.30
2022-10-18T06:45:33.978Z,86.03
2022-10-18T06:48:00.588Z,86.07
2022-10-18T06:50:27.166Z,85.87
2022-10-18T06:52:53.783Z,85.65
2022-10-18T06:55:20.371Z,85.47
2022-10-18T06:57:47.263Z,86.16
2022-10-18T07:00:14.560Z,85.76
2022-10-18T07:02:41.400Z,86.37
2022-10-18T07:05:09.339Z,86.19
2022-10-18T07:07:36.356Z,86.29
2022-10-18T07:10:04.751Z,85.99
2022-10-18T07:12:31.892Z,86.15
2022-10-18T07:14:58.597Z,85.88
2022-10-18T07:17:26.061Z,86.01
2022-10-18T07:19:52.723Z,85.93
2022-10-18T07:22:19.313Z,85.43
2022-10-18T07:24:45.882Z,85.33
2022-10-18T07:27:12.485Z,85.83
2022-10-18T07:29:39.753Z,86.17
2022-10-18T07:32:06.401Z,85.42
2022-10-18T07:34:33.078Z,86.07
2022-10-18T07:37:01.471Z,85.93
2022-10-18T07:39:28.123Z,85.49
2022-10-18T07:41:54.707Z,85.87
2022-10-18T07:44:21.433Z,85.56
2022-10-18T07:46:48.040Z,86.24
2022-10-18T07:49:21.955Z,85.54
2022-10-18T07:51:48.609Z,85.97
2022-10-18T07:54:15.365Z,85.91
2022-10-18T07:56:42.798Z,85.45
2022-10-18T07:59:13.031Z,85.53
2022-10-18T08:01:40.049Z,85.40
2022-10-18T08:04:09.039Z,85.39
2022-10-18T08:06:37.546Z,85.80
2022-10-18T08:09:04.509Z,85.62
2022-10-18T08:11:31.218Z,85.76
2022-10-18T08:13:57.899Z,85.85
2022-10-18T08:16:29.430Z,85.53
2022-10-18T08:18:58.918Z,85.59
2022-10-18T08:21:26.087Z,85.06
2022-10-18T08:23:53.952Z,85.17
2022-10-18T08:26:22.330Z,86.06
2022-10-18T08:28:58.379Z,85.75
2022-10-18T08:31:36.415Z,85.93
2022-10-18T08:34:03.022Z,85.69
2022-10-18T08:36:29.685Z,85.90
2022-10-18T08:38:56.325Z,85.93
2022-10-18T08:41:38.097Z,85.81
2022-10-18T08:44:10.544Z,85.73
2022-10-18T08:46:41.710Z,85.46
2022-10-18T08:49:17.818Z,85.36
2022-10-18T08:51:47.538Z,85.51
2022-10-18T08:54:18.763Z,85.70
2022-10-18T08:56:59.787Z,85.13
2022-10-18T08:59:31.644Z,85.23
2022-10-18T09:02:10.201Z,85.69
2022-10-18T09:04:58.707Z,85.46
2022-10-18T09:07:53.534Z,84.86
2022-10-18T09:10:45.490Z,85.02
2022-10-18T09:13:33.248Z,85.26
2022-10-18T09:16:02.881Z,84.94
2022-10-18T09:19:05.575Z,84.83
2022-10-18T09:22:09.855Z,84.78
2022-10-18T09:24:44.629Z,85.20
2022-10-18T09:27:19.030Z,84.75
2022-10-18T09:30:23.075Z,85.10
2022-10-18T09:33:00.740Z,84.76
2022-10-18T09:35:57.990Z,84.82
2022-10-18T09:38:32.095Z,84.42
2022-10-18T09:41:05.333Z,84.39
2022-10-18T09:43:50.606Z,84.70
2022-10-18T09:46:19.976Z,84.60
2022-10-18T09:48:56.652Z,84.93
2022-10-18T09:51:44.751Z,84.75
2022-10-18T09:54:14.099Z,84.39
2022-10-18T09:56:48.237Z,84.27
2022-10-18T09:59:34.055Z,84.68
2022-10-18T10:02:00.780Z,84.10
2022-10-18T10:04:27.930Z,83.70
2022-10-18T10:06:56.888Z,83.62
2022-10-18T10:09:36.214Z,83.54
2022-10-18T10:12:03.485Z,83.60
2022-10-18T10:14:30.865Z,83.80
2022-10-18T10:17:20.465Z,83.78
2022-10-18T10:20:21.228Z,83.14
2022-10-18T10:22:49.978Z,83.21
2022-10-18T10:25:32.862Z,83.29
2022-10-18T10:28:14.194Z,83.28
2022-10-18T10:30:40.840Z,83.13
2022-10-18T10:33:30.103Z,83.35
2022-10-18T10:36:02.215Z,82.82
2022-10-18T10:38:31.171Z,83.30
2022-10-18T10:40:59.126Z,83.29
2022-10-18T10:43:39.946Z,83.17
2022-10-18T10:46:16.542Z,83.10
2022-10-18T10:49:04.179Z,82.73
2022-10-18T10:51:40.346Z,83.08
2022-10-18T10:54:17.665Z,82.67
2022-10-18T10:57:11.301Z,82.57
2022-10-18T10:59:50.184Z,82.43
2022-10-18T11:02:17.697Z,82.39
2022-10-18T11:04:46.963Z,82.43
2022-10-18T11:07:41.634Z,82.16
2022-10-18T11:10:14.328Z,81.93
2022-10-18T11:13:03.260Z,81.81
2022-10-18T11:15:36.566Z,81.44
2022-10-18T11:18:05.165Z,82.04
2022-10-18T11:21:01.145Z,81.61
2022-10-18T11:23:32.485Z,81.85
2022-10-18T11:26:11.075Z,81.66
2022-10-18T11:29:05.489Z,81.29
2022-10-18T11:31:55.075Z,81.06
2022-10-18T11:34:30.837Z,80.88
2022-10-18T11:37:27.117Z,80.98
2022-10-18T11:40:07.516Z,80.95
2022-10-18T11:42:53.886Z,80.99
2022-10-18T11:45:45.965Z,80.79
2022-10-18T11:48:21.644Z,80.86
2022-10-18T11:51:18.488Z,80.89
2022-10-18T11:54:05.196Z,80.64
2022-10-18T11:56:47.546Z,80.79
2022-10-18T11:59:24.552Z,80.67
2022-10-18T12:02:35.605Z,80.82
2022-10-18T12:05:24.280Z,81.05
2022-10-18T12:08:03.507Z,80.81
2022-10-18T12:10:45.742Z,80.68
2022-10-18T12:13:29.485Z,80.61
2022-10-18T12:15:58.724Z,80.83
2022-10-18T12:18:26.481Z,80.70
2022-10-18T12:20:58.813Z,80.52
2022-10-18T12:23:43.958Z,80.42
2022-10-18T12:26:13.065Z,80.35
2022-10-18T12:28:55.107Z,81.01
2022-10-18T12:31:28.034Z,80.71
2022-10-18T12:34:06.152Z,80.59
2022-10-18T12:36:45.794Z,80.62
2022-10-18T12:39:43.662Z,80.80
2022-10-18T12:42:28.516Z,80.59
2022-10-18T12:45:33.551Z,80.58
2022-10-18T12:48:06.739Z,80.42
2022-10-18T12:50:36.943Z,80.39
2022-10-18T12:53:09.566Z,80.16
2022-10-18T12:55:38.495Z,80.47
2022-10-18T12:58:14.065Z,80.99
2022-10-18T13:00:43.463Z,80.23
2022-10-18T13:03:10.256Z,80.14
2022-10-18T13:05:54.704Z,80.17
2022-10-18T13:08:28.455Z,80.37
2022-10-18T13:11:10.198Z,80.13
2022-10-18T13:14:01.099Z,80.48
2022-10-18T13:16:54.281Z,80.15
2022-10-18T13:19:29.030Z,80.28
2022-10-18T13:22:11.014Z,79.76
2022-10-18T13:25:04.333Z,79.93
2022-10-18T13:27:42.233Z,79.58
2022-10-18T13:30:18.010Z,80.27
2022-10-18T13:32:58.571Z,79.95
2022-10-18T13:35:59.123Z,80.00
2022-10-18T13:38:47.316Z,80.20
2022-10-18T13:41:25.321Z,79.97
2022-10-18T13:44:13.642Z,79.80
2022-10-18T13:46:40.145Z,79.83
2022-10-18T13:49:36.872Z,80.03
2022-10-18T13:52:28.263Z,79.87
2022-10-18T13:55:16.393Z,80.19
2022-10-18T13:58:00.583Z,79.82
2022-10-18T14:00:49.050Z,79.70
2022-10-18T14:04:03.099Z,79.51
2022-10-18T14:06:40.426Z,79.62
2022-10-18T14:09:43.784Z,79.74
2022-10-18T14:12:22.873Z,79.44
2022-10-18T14:15:02.600Z,79.84
2022-10-18T14:17:53.366Z,80.03
2022-10-18T14:20:29.404Z,80.21
2022-10-18T14:23:14.793Z,80.40
2022-10-18T14:25:42.162Z,80.55
2022-10-18T14:28:27.292Z,80.71
2022-10-18T14:31:09.370Z,81.18
2022-10-18T14:33:37.155Z,80.93
2022-10-18T14:36:15.643Z,81.48
2022-10-18T14:38:53.502Z,80.90
2022-10-18T14:41:20.054Z,81.26
2022-10-18T14:43:48.218Z,81.48
2022-10-18T14:46:19.683Z,81.69
2022-10-18T14:48:58.015Z,81.80
2022-10-18T14:51:25.705Z,81.84
2022-10-18T14:53:53.579Z,81.79
2022-10-18T14:56:31.664Z,81.45
2022-10-18T14:59:04.619Z,81.49
2022-10-18T15:01:32.919Z,81.79
2022-10-18T15:04:10.451Z,82.25
2022-10-18T15:06:42.746Z,82.14
2022-10-18T15:09:11.683Z,82.52
2022-10-18T15:11:41.548Z,82.61
2022-10-18T15:14:16.451Z,82.12
2022-10-18T15:16:43.412Z,82.13
2022-10-18T15:19:15.889Z,81.74
2022-10-18T15:22:08.056Z,82.00
2022-10-18T15:24:42.097Z,82.81
2022-10-18T15:27:20.926Z,82.37
2022-10-18T15:29:47.808Z,81.96
2022-10-18T15:32:30.427Z,82.30
2022-10-18T15:35:18.496Z,83.02
2022-10-18T15:37:48.618Z,82.26
2022-10-18T15:40:29.194Z,82.62
2022-10-18T15:43:05.847Z,82.51
2022-10-18T15:45:45.529Z,82.44
2022-10-18T15:48:15.320Z,82.18
2022-10-18T15:50:44.710Z,82.41
2022-10-18T15:53:41.777Z,82.17
2022-10-18T15:56:33.177Z,81.99
2022-10-18T15:59:06.020Z,82.16
2022-10-18T16:01:37.296Z,81.78
2022-10-18T16:04:23.406Z,82.29
2022-10-18T16:06:50.987Z,82.75
2022-10-18T16:09:20.353Z,82.44
2022-10-18T16:11:57.187Z,81.60
2022-10-18T16:14:26.203Z,82.16
2022-10-18T16:17:02.459Z,82.31
2022-10-18T16:19:30.869Z,82.16
2022-10-18T16:22:05.182Z,82.16
2022-10-18T16:24:34.248Z,81.92
2022-10-18T16:27:03.489Z,81.45
2022-10-18T16:29:39.855Z,81.60
2022-10-18T16:32:19.741Z,81.75
2022-10-18T16:34:52.437Z,81.98
2022-10-18T16:37:22.343Z,81.73
2022-10-18T16:39:52.742Z,81.98
2022-10-18T16:42:23.312Z,81.73
2022-10-18T16:45:11.416Z,81.71
2022-10-18T16:47:45.959Z,81.72
2022-10-18T16:50:21.721Z,81.49
2022-10-18T16:52:48.357Z,81.71
2022-10-18T16:55:17.230Z,81.30
2022-10-18T16:57:44.016Z,81.49
2022-10-18T17:00:18.844Z,82.00
2022-10-18T17:02:45.489Z,81.26
2022-10-18T17:05:12.064Z,81.69
2022-10-18T17:07:38.853Z,81.47
2022-10-18T17:10:05.994Z,81.31
2022-10-18T17:12:32.969Z,81.78
2022-10-18T17:15:05.413Z,81.51
2022-10-18T17:17:32.414Z,81.49
2022-10-18T17:19:59.415Z,81.59
2022-10-18T17:22:36.411Z,81.63
2022-10-18T17:25:07.315Z,81.90
2022-10-18T17:27:34.301Z,81.71
2022-10-18T17:30:33.155Z,81.65
2022-10-18T17:33:08.361Z,82.06
2022-10-18T17:35:37.241Z,82.11
2022-10-18T17:38:08.807Z,82.17
2022-10-18T17:40:35.574Z,82.00
2022-10-18T17:43:06.416Z,81.83
2022-10-18T17:46:07.728Z,81.77
2022-10-18T17:48:50.314Z,81.89
2022-10-18T17:51:37.533Z,82.10
2022-10-18T17:54:09.706Z,81.97
2022-10-18T17:59:38.583Z,81.58
2022-10-18T18:02:13.887Z,81.63
2022-10-18T18:04:52.470Z,81.65
2022-10-18T18:07:28.340Z,81.50
2022-10-18T18:10:11.491Z,81.56
2022-10-18T18:12:47.533Z,81.85
2022-10-18T18:15:19.477Z,81.67
2022-10-18T18:17:57.011Z,81.62
2022-10-18T18:20:35.170Z,81.46
2022-10-18T18:23:07.129Z,81.22
2022-10-18T18:25:37.156Z,81.64
2022-10-18T18:28:07.834Z,81.76
2022-10-18T18:30:37.767Z,81.70
2022-10-18T18:33:07.613Z,81.57
2022-10-18T18:35:34.937Z,81.66
2022-10-18T18:38:08.015Z,81.92
2022-10-18T18:40:34.870Z,81.42
2022-10-18T18:43:18.956Z,81.77
2022-10-18T18:45:54.580Z,81.45
2022-10-18T18:48:21.612Z,81.51
2022-10-18T18:50:52.344Z,81.45
2022-10-18T18:53:19.566Z,81.69
2022-10-18T18:55:47.028Z,81.17
2022-10-18T18:58:15.890Z,81.63
2022-10-18T19:00:44.572Z,81.38
2022-10-18T19:03:17.392Z,81.24
2022-10-18T19:05:44.150Z,81.62
2022-10-18T19:08:10.830Z,81.46
2022-10-18T19:10:37.471Z,81.53
2022-10-18T19:13:04.103Z,81.57
2022-10-18T19:15:30.871Z,81.78
2022-10-18T19:17:57.760Z,82.04
2022-10-18T19:20:24.418Z,81.98
2022-10-18T19:22:51.427Z,81.61
2022-10-18T19:25:18.883Z,81.90
2022-10-18T19:27:46.847Z,81.93
2022-10-18T19:30:13.462Z,82.05
2022-10-18T19:32:40.264Z,82.32
2022-10-18T19:35:07.157Z,81.86
2022-10-18T19:37:34.019Z,81.96
2022-10-18T19:40:00.897Z,82.28
2022-10-18T19:42:31.067Z,82.23
2022-10-18T19:44:58.147Z,82.29
2022-10-18T19:47:24.779Z,82.35
2022-10-18T19:49:52.778Z,82.40
2022-10-18T19:52:19.418Z,82.22
2022-10-18T19:54:49.173Z,82.41
2022-10-18T19:57:15.774Z,82.60
2022-10-18T19:59:42.443Z,82.57
2022-10-18T20:02:13.419Z,82.67
2022-10-18T20:04:40.137Z,82.41
2022-10-18T20:07:06.874Z,82.61
2022-10-18T20:09:33.870Z,82.36
2022-10-18T20:12:00.545Z,82.89
2022-10-18T20:14:27.193Z,82.62
2022-10-18T20:16:53.866Z,83.02
2022-10-18T20:19:21.615Z,82.68
2022-10-18T20:21:48.296Z,83.24
2022-10-18T20:24:14.979Z,83.11
2022-10-18T20:26:43.452Z,82.96
2022-10-18T20:29:12.615Z,82.93
2022-10-18T20:31:39.576Z,83.15
2022-10-18T20:34:09.144Z,83.21
2022-10-18T20:36:37.194Z,82.93
2022-10-18T20:39:04.426Z,83.04
2022-10-18T20:41:39.954Z,83.20
2022-10-18T20:44:11.538Z,82.87
2022-10-18T20:46:38.955Z,82.93
2022-10-18T20:49:10.778Z,83.04
2022-10-18T20:51:37.437Z,82.82
2022-10-18T20:56:38.772Z,82.76
2022-10-18T20:59:10.578Z,82.61
2022-10-18T21:01:39.023Z,82.09
2022-10-18T21:04:07.715Z,82.08
2022-10-18T21:06:37.507Z,81.92
2022-10-18T21:09:07.279Z,81.94
2022-10-18T21:11:39.320Z,82.31
2022-10-18T21:14:07.611Z,81.98
2022-10-18T21:16:35.502Z,81.55
2022-10-18T21:19:14.458Z,81.85
2022-10-18T21:21:44.008Z,81.21
2022-10-18T21:24:12.218Z,81.33
2022-10-18T21:26:39.315Z,81.38
2022-10-18T21:29:06.661Z,81.53
2022-10-18T21:31:35.573Z,81.29
2022-10-18T21:34:05.032Z,81.21
2022-10-18T21:36:33.845Z,80.97
2022-10-18T21:39:00.538Z,80.57
2022-10-18T21:41:27.281Z,80.47
2022-10-18T21:43:54.971Z,80.24
2022-10-18T21:46:22.938Z,80.75
2022-10-18T21:48:51.530Z,80.61
2022-10-18T21:51:20.115Z,80.67
2022-10-18T21:53:49.553Z,80.53
2022-10-18T21:56:21.777Z,80.30
2022-10-18T21:58:48.499Z,80.10
2022-10-18T22:01:18.530Z,80.10
2022-10-18T22:03:47.582Z,79.67
2022-10-18T22:06:15.285Z,79.92
2022-10-18T22:08:52.994Z,79.21
2022-10-18T22:11:23.224Z,79.63
2022-10-18T22:13:50.054Z,79.36
2022-10-18T22:16:17.349Z,79.38
2022-10-18T22:18:45.210Z,78.98
2022-10-18T22:21:16.001Z,79.23
2022-10-18T22:23:48.485Z,79.13
2022-10-18T22:26:27.091Z,79.17
2022-10-18T22:29:02.089Z,79.30
2022-10-18T22:31:32.197Z,78.99
2022-10-18T22:34:01.875Z,78.60
2022-10-18T22:36:29.181Z,78.87
2022-10-18T22:38:56.189Z,78.85
2022-10-18T22:41:22.945Z,78.56
2022-10-18T22:43:53.751Z,78.20
2022-10-18T22:46:20.891Z,78.23
2022-10-18T22:48:47.904Z,78.70
2022-10-18T22:51:14.619Z,78.56
2022-10-18T22:53:44.931Z,78.18
2022-10-18T22:56:15.362Z,78.33
2022-10-18T22:58:41.995Z,77.74
2022-10-18T23:01:14.213Z,78.03
2022-10-18T23:03:42.907Z,78.44
2022-10-18T23:06:23.373Z,77.82
2022-10-18T23:08:50.876Z,78.04
2022-10-18T23:11:18.141Z,77.46
2022-10-18T23:13:45.223Z,78.09
2022-10-18T23:16:11.929Z,77.58
2022-10-18T23:21:12.167Z,78.09
2022-10-18T23:23:40.653Z,77.19
2022-10-18T23:26:13.009Z,77.58
2022-10-18T23:28:43.857Z,77.59
2022-10-18T23:31:16.675Z,77.61
2022-10-18T23:33:43.533Z,77.34
2022-10-18T23:36:10.800Z,77.05
2022-10-18T23:38:38.853Z,76.78
2022-10-18T23:41:06.841Z,77.02
2022-10-18T23:43:36.121Z,77.07
2022-10-18T23:46:02.801Z,77.38
2022-10-18T23:48:29.497Z,77.08
2022-10-18T23:50:59.250Z,76.89
2022-10-18T23:53:26.002Z,76.64
2022-10-18T23:56:01.697Z,77.39
2022-10-18T23:58:30.345Z,76.63
